Time;durP1;ratioP1;P1;durP2;ratioP2;P2;SDS_P1;SDS_P2;PMS_P1;PMS_P2;Temp;Humidity;BMP_temperature;BMP_pressure;BME280_temperature;BME280_humidity;BME280_pressure;Samples;Min_cycle;Max_cycle;Signal;HPM_P1;HPM_P2
2023/12/21 00:00:20;;;;;;;;;;;;;;;;;;;;;
2023/12/21 00:03:50;;;;;;;;;;;;;;;;;;;;;
2023/12/21 00:06:22;;;;;;;9.82;5.50;;;;;;;8.19;100.00;100635.72;6277743;22;20396;-94
2023/12/21 00:08:55;;;;;;;11.63;5.22;;;;;;;8.46;100.00;100655.47;6254689;22;20094;-94
2023/12/21 00:11:53;;;;;;;;;;;;;;;;;;;;;
2023/12/21 00:17:56;;;;;;;9.95;5.40;;;;;;;8.39;100.00;100616.75;6290339;22;20011;-95
2023/12/21 00:21:17;;;;;;;14.40;5.78;;;;;;;8.70;100.00;100657.63;6282182;22;20007;-94
2023/12/21 00:27:04;;;;;;;13.70;5.47;;;;;;;8.59;100.00;100627.59;6287626;22;20090;-94
2023/12/21 00:33:08;;;;;;;;;;;;;;;;;;;;;
2023/12/21 00:36:06;;;;;;;15.80;6.25;;;;;;;8.70;100.00;100637.44;6306263;22;20086;-94
2023/12/21 00:41:52;;;;;;;12.75;5.45;;;;;;;8.42;100.00;100593.09;6292966;22;20012;-95
2023/12/21 00:44:53;;;;;;;;;;;;;;;;;;;;;
2023/12/21 00:48:14;;;;;;;9.45;5.13;;;;;;;8.42;100.00;100572.91;6304395;22;19974;-94
2023/12/21 01:01:01;;;;;;;8.93;5.95;;;;;;;8.57;100.00;100569.66;6208552;23;20013;-93
2023/12/21 01:03:29;;;;;;;16.52;6.50;;;;;;;8.25;100.00;100519.09;6214263;23;20012;-91
2023/12/21 01:05:55;;;;;;;13.55;6.00;;;;;;;8.64;100.00;100573.22;6306424;22;20101;-91
2023/12/21 01:12:14;;;;;;;;;;;;;;;;;;;;;
2023/12/21 01:14:57;;;;;;;;;;;;;;;;;;;;;
2023/12/21 01:18:05;;;;;;;;;;;;;;;;;;;;;
2023/12/21 01:21:01;;;;;;;;;;;;;;;;;;;;;
2023/12/21 01:23:40;;;;;;;13.35;6.20;;;;;;;8.21;100.00;100486.56;6308799;22;20091;-94
2023/12/21 01:26:33;;;;;;;;;;;;;;;;;;;;;
2023/12/21 01:29:15;;;;;;;14.70;6.63;;;;;;;8.53;100.00;100536.22;6308589;22;20106;-94
2023/12/21 01:35:19;;;;;;;;;;;;;;;;;;;;;
2023/12/21 01:37:56;;;;;;;16.65;6.13;;;;;;;8.25;100.00;100458.56;6306832;22;20374;-94
2023/12/21 01:40:41;;;;;;;14.55;5.90;;;;;;;8.22;100.00;100447.97;6307443;22;20338;-93
2023/12/21 01:43:27;;;;;;;;;;;;;;;;;;;;;
2023/12/21 01:55:27;;;;;;;19.13;6.03;;;;;;;8.28;100.00;100440.19;6298796;22;20064;-94
2023/12/21 01:58:13;;;;;;;18.88;6.07;;;;;;;8.28;100.00;100440.19;6308218;22;20011;-95
2023/12/21 02:00:55;;;;;;;11.98;6.20;;;;;;;8.36;100.00;100446.44;6283376;22;20015;-94
2023/12/21 02:03:55;;;;;;;14.73;7.45;;;;;;;8.43;100.00;100464.09;6307167;22;20468;-94
2023/12/21 02:06:51;;;;;;;16.75;6.50;;;;;;;8.69;100.00;100516.22;6307539;22;20430;-95
2023/12/21 02:09:45;;;;;;;19.70;6.93;;;;;;;8.25;100.00;100446.28;6308241;22;20015;-96
2023/12/21 02:18:45;;;;;;;15.68;7.50;;;;;;;8.25;100.00;100446.28;6264662;22;20453;-94
2023/12/21 02:21:52;;;;;;;;;;;;;;;;;;;;;
2023/12/21 02:24:47;;;;;;;;;;;;;;;;;;;;;
2023/12/21 02:27:33;;;;;;;19.17;8.40;;;;;;;8.26;100.00;100424.38;6307939;22;20086;-95
2023/12/21 02:30:22;;;;;;;20.17;8.48;;;;;;;8.30;100.00;100427.91;6307734;22;20033;-94
2023/12/21 02:33:03;;;;;;;19.00;8.40;;;;;;;8.67;100.00;100474.06;6307182;22;20007;-93
2023/12/21 02:35:50;;;;;;;16.20;8.70;;;;;;;8.34;100.00;100400.75;6283702;22;20061;-93
2023/12/21 02:39:00;;;;;;;;;;;;;;;;;;;;;
2023/12/21 02:42:26;;;;;;;;;;;;;;;;;;;;;
2023/12/21 02:45:49;;;;;;;16.20;7.50;;;;;;;8.70;100.00;100449.53;6306972;22;20085;-95
2023/12/21 02:48:56;;;;;;;;;;;;;;;;;;;;;
2023/12/21 02:58:39;;;;;;;;;;;;;;;;;;;;;
2023/12/21 03:02:06;;;;;;;;;;;;;;;;;;;;;
2023/12/21 03:15:33;;;;;;;20.05;6.90;;;;;;;8.69;100.00;100410.88;6245345;22;20016;-95
2023/12/21 03:18:22;;;;;;;18.85;6.35;;;;;;;8.33;100.00;100325.31;6244955;23;20008;-95
2023/12/21 03:20:50;;;;;;;13.98;6.32;;;;;;;8.42;100.00;100314.91;6218518;23;20027;-95
2023/12/21 03:30:12;;;;;;;17.38;6.07;;;;;;;8.68;100.00;100333.59;6285095;22;20015;-94
2023/12/21 03:44:53;;;;;;;;;;;;;;;;;;;;;
2023/12/21 03:47:26;;;;;;;20.10;5.30;;;;;;;8.34;100.00;100255.09;6212428;22;20063;-95
2023/12/21 03:53:42;;;;;;;;;;;;;;;;;;;;;
2023/12/21 03:56:59;;;;;;;;;;;;;;;;;;;;;
2023/12/21 04:00:05;;;;;;;;;;;;;;;;;;;;;
2023/12/21 04:02:42;;;;;;;15.50;5.40;;;;;;;8.65;100.00;100251.03;6304540;22;20110;-94
2023/12/21 04:05:45;;;;;;;17.42;5.63;;;;;;;8.77;100.00;100278.38;6282577;22;20319;-95
2023/12/21 04:08:25;;;;;;;18.25;6.07;;;;;;;8.40;100.00;100210.47;6272755;22;20007;-95
2023/12/21 04:11:42;;;;;;;16.90;5.75;;;;;;;8.35;100.00;100215.66;6282712;22;20054;-95
2023/12/21 04:14:42;;;;;;;14.48;5.70;;;;;;;8.46;100.00;100210.50;6284036;22;20066;-96
2023/12/21 04:17:51;;;;;;;;;;;;;;;;;;;;;
2023/12/21 04:21:08;;;;;;;21.58;7.05;;;;;;;8.83;100.00;100263.50;6292595;22;20031;-96
2023/12/21 04:23:59;;;;;;;23.17;6.53;;;;;;;8.49;100.00;100190.34;6277310;22;20031;-96
2023/12/21 04:27:02;;;;;;;20.65;6.68;;;;;;;8.55;100.00;100186.88;6277678;22;20041;-96
2023/12/21 04:29:53;;;;;;;15.30;7.05;;;;;;;8.51;100.00;100157.00;6260057;22;20030;-96
2023/12/21 04:32:27;;;;;;;17.75;7.40;;;;;;;8.66;100.00;100187.88;6283435;22;19999;-96
2023/12/21 04:35:31;;;;;;;21.63;7.40;;;;;;;8.94;100.00;100219.66;6283394;22;20018;-96
2023/12/21 04:38:01;;;;;;;24.23;8.23;;;;;;;8.59;100.00;100137.75;6264262;22;20018;-95
2023/12/21 04:40:31;;;;;;;26.30;7.78;;;;;;;8.62;100.00;100124.63;6235996;22;20038;-96
2023/12/21 04:43:12;;;;;;;26.17;8.40;;;;;;;8.87;100.00;100152.03;6258467;22;20397;-96
2023/12/21 04:45:48;;;;;;;20.92;8.35;;;;;;;8.80;100.00;100142.31;6260776;22;20011;-96
2023/12/21 04:48:38;;;;;;;;;;;;;;;;;;;;;
2023/12/21 04:51:27;;;;;;;21.17;8.18;;;;;;;9.11;100.00;100186.41;6314173;22;20382;-96
2023/12/21 04:54:59;;;;;;;20.20;7.90;;;;;;;8.74;100.00;100103.66;6294356;22;20033;-96
2023/12/21 04:58:00;;;;;;;19.35;7.30;;;;;;;9.08;100.00;100144.25;6289190;22;20015;-96
2023/12/21 05:00:44;;;;;;;;;;;;;;;;;;;;;
2023/12/21 05:03:30;;;;;;;21.33;7.05;;;;;;;9.08;100.00;100112.63;6316344;22;20385;-95
2023/12/21 05:07:11;;;;;;;;;;;;;;;;;;;;;
2023/12/21 05:09:59;;;;;;;;;;;;;;;;;;;;;
2023/12/21 05:16:17;;;;;;;14.73;6.05;;;;;;;9.16;100.00;100110.00;6289753;22;20318;-96
2023/12/21 05:19:07;;;;;;;;;;;;;;;;;;;;;
2023/12/21 05:22:22;;;;;;;22.27;6.40;;;;;;;8.89;100.00;100069.47;6310967;22;20086;-96
2023/12/21 05:25:24;;;;;;;19.13;6.10;;;;;;;9.08;100.00;100104.72;6291105;22;20026;-96
2023/12/21 05:39:39;;;;;;;;;;;;;;;;;;;;;
2023/12/21 05:42:32;;;;;;;13.70;4.50;;;;;;;8.96;100.00;100015.06;6178895;23;20008;-96
2023/12/21 05:45:35;;;;;;;15.75;4.57;;;;;;;9.21;100.00;100053.81;6195996;23;20092;-96
2023/12/21 05:48:47;;;;;;;;;;;;;;;;;;;;;
2023/12/21 05:52:16;;;;;;;12.95;3.80;;;;;;;9.11;100.00;100030.03;6131960;23;20029;-96
2023/12/21 05:58:39;;;;;;;;;;;;;;;;;;;;;
2023/12/21 06:01:10;;;;;;;10.35;3.75;;;;;;;9.43;100.00;100107.47;6221355;23;20028;-96
2023/12/21 06:04:01;;;;;;;9.52;4.00;;;;;;;9.09;100.00;100035.31;6192452;23;20410;-96
2023/12/21 06:12:54;;;;;;;11.40;3.90;;;;;;;9.34;100.00;100065.28;6154666;23;20339;-96
2023/12/21 06:16:02;;;;;;;;;;;;;;;;;;;;;
2023/12/21 06:19:10;;;;;;;;;;;;;;;;;;;;;
2023/12/21 06:22:18;;;;;;;12.23;4.45;;;;;;;8.96;100.00;99994.84;6133958;23;20084;-95
2023/12/21 06:25:01;;;;;;;;;;;;;;;;;;;;;
2023/12/21 06:31:38;;;;;;;;;;;;;;;;;;;;;
2023/12/21 06:34:19;;;;;;;;;;;;;;;;;;;;;
2023/12/21 06:37:03;;;;;;;12.65;5.22;;;;;;;9.22;100.00;100052.03;6127746;23;20085;-96
2023/12/21 06:39:40;;;;;;;10.10;5.05;;;;;;;9.23;100.00;100040.63;6078952;23;20357;-96
2023/12/21 06:42:28;;;;;;;14.10;4.88;;;;;;;8.85;100.00;99964.94;6105734;23;20100;-96
2023/12/21 06:45:20;;;;;;;14.35;5.55;;;;;;;8.84;100.00;99954.41;6105690;23;20006;-96
2023/12/21 06:48:15;;;;;;;12.20;5.28;;;;;;;9.26;100.00;100043.28;6226484;22;20015;-96
2023/12/21 06:51:31;;;;;;;20.25;5.07;;;;;;;8.85;100.00;99964.06;6282921;22;20015;-96
2023/12/21 07:03:58;;;;;;;;;;;;;;;;;;;;;
2023/12/21 07:10:15;;;;;;;12.80;4.05;;;;;;;9.13;100.00;99936.94;6296607;22;20027;-96
2023/12/21 07:18:40;;;;;;;10.52;3.78;;;;;;;9.26;100.00;99937.81;6218238;22;19999;-96
2023/12/21 07:21:18;;;;;;;;;;;;;;;;;;;;;
2023/12/21 07:24:01;;;;;;;9.98;3.50;;;;;;;9.12;100.00;99922.00;6272205;22;20011;-96
2023/12/21 07:26:55;;;;;;;12.05;4.47;;;;;;;9.09;100.00;99898.25;6296213;22;19995;-95
2023/12/21 07:29:50;;;;;;;;;;;;;;;;;;;;;
2023/12/21 07:35:27;;;;;;;12.40;3.80;;;;;;;9.39;100.00;99921.13;6293443;22;20083;-95
2023/12/21 07:38:16;;;;;;;12.57;3.85;;;;;;;9.05;100.00;99849.06;6295236;22;20012;-94
2023/12/21 07:41:11;;;;;;;10.82;3.60;;;;;;;9.18;100.00;99860.50;6281075;22;20042;-92
2023/12/21 07:43:57;;;;;;;8.90;3.42;;;;;;;9.15;100.00;99842.03;6277104;22;20094;-93
2023/12/21 07:46:51;;;;;;;10.02;3.20;;;;;;;9.15;100.00;99831.50;6276345;22;20011;-92
2023/12/21 07:49:26;;;;;;;11.02;3.50;;;;;;;9.40;100.00;99885.09;6278483;22;20004;-95
2023/12/21 07:52:20;;;;;;;10.10;3.30;;;;;;;9.37;100.00;99872.78;6252023;22;20012;-94
2023/12/21 07:55:48;;;;;;;12.30;3.35;;;;;;;9.24;100.00;99835.00;6289912;22;20004;-96
2023/12/21 07:59:04;;;;;;;9.20;3.30;;;;;;;9.24;100.00;99831.50;6244634;22;20007;-96
2023/12/21 08:12:03;;;;;;;8.52;3.38;;;;;;;9.21;100.00;99808.66;6260620;22;20020;-96
2023/12/21 08:14:49;;;;;;;6.55;2.95;;;;;;;9.19;100.00;99806.91;6265356;22;20007;-95
2023/12/21 08:20:57;;;;;;;;;;;;;;;;;;;;;
2023/12/21 08:30:26;;;;;;;;;;;;;;;;;;;;;
2023/12/21 08:33:31;;;;;;;;;;;;;;;;;;;;;
2023/12/21 08:36:36;;;;;;;6.93;3.10;;;;;;;9.19;100.00;99802.50;6287716;22;20086;-96
2023/12/21 08:39:18;;;;;;;8.20;3.30;;;;;;;9.42;100.00;99843.78;6290688;22;20015;-95
2023/12/21 08:41:59;;;;;;;8.00;3.05;;;;;;;9.16;100.00;99794.59;6287536;22;20011;-96
2023/12/21 08:44:58;;;;;;;7.00;3.40;;;;;;;9.50;100.00;99839.38;6283030;22;20015;-94
2023/12/21 08:47:38;;;;;;;7.45;3.25;;;;;;;9.25;100.00;99793.75;6270742;22;20008;-94
2023/12/21 08:50:24;;;;;;;;;;;;;;;;;;;;;
2023/12/21 08:53:07;;;;;;;5.55;2.83;;;;;;;9.33;100.00;99802.47;6317562;22;20019;-95
2023/12/21 08:55:40;;;;;;;6.03;2.90;;;;;;;9.57;100.00;99824.44;6316760;22;20078;-95
2023/12/21 08:58:37;;;;;;;;;;;;;;;;;;;;;
2023/12/21 09:01:22;;;;;;;9.15;2.90;;;;;;;9.24;100.00;99748.03;6309257;22;20074;-93
2023/12/21 09:03:58;;;;;;;8.38;3.50;;;;;;;9.31;100.00;99756.81;6309984;22;20034;-93
2023/12/21 09:06:49;;;;;;;9.50;3.30;;;;;;;9.39;100.00;99773.50;6284808;22;20003;-95
2023/12/21 09:09:40;;;;;;;;;;;;;;;;;;;;;
2023/12/21 09:12:42;;;;;;;6.53;3.15;;;;;;;9.47;100.00;99760.31;6309596;22;20079;-95
2023/12/21 09:15:56;;;;;;;;;;;;;;;;;;;;;
2023/12/21 09:18:23;;;;;;;;;;;;;;;;;;;;;
2023/12/21 09:21:13;;;;;;;9.48;3.22;;;;;;;9.50;100.00;99753.22;6310038;22;20103;-94
2023/12/21 09:28:02;;;;;;;9.70;2.80;;;;;;;9.39;100.00;99702.31;6284558;22;20027;-94
2023/12/21 09:43:45;;;;;;;8.07;2.50;;;;;;;9.78;100.00;99726.78;6349450;22;20023;-96
2023/12/21 09:46:43;;;;;;;9.50;2.53;;;;;;;9.71;100.00;99710.09;6350951;22;20069;-96
2023/12/21 09:49:22;;;;;;;7.20;2.53;;;;;;;10.06;100.00;99775.03;6348190;22;20003;-96
2023/12/21 09:55:55;;;;;;;11.30;2.50;;;;;;;9.84;100.00;99710.91;6318383;22;20433;-96
2023/12/21 10:02:39;;;;;;;9.40;2.38;;;;;;;9.96;100.00;99697.66;6241276;23;20015;-96
2023/12/21 10:08:47;;;;;;;8.30;2.10;;;;;;;10.37;100.00;99749.41;6245805;23;20031;-96
2023/12/21 10:15:19;;;;;;;11.57;2.45;;;;;;;10.42;100.00;99721.19;6286293;22;20421;-96
2023/12/21 10:17:50;;;;;;;7.22;2.30;;;;;;;10.46;100.00;99743.19;6318314;22;20011;-96
2023/12/21 10:21:13;;;;;;;6.28;2.13;;;;;;;10.22;100.00;99702.78;6325803;22;20013;-96
2023/12/21 10:24:43;;;;;;;9.63;2.15;;;;;;;10.18;100.00;99689.63;6311785;22;20006;-96
2023/12/21 10:27:35;;;;;;;8.48;2.08;;;;;;;10.61;100.00;99737.78;6270700;22;20088;-95
2023/12/21 10:34:34;;;;;;;;;;;;;;;;;;;;;
2023/12/21 10:38:10;;;;;;;7.00;2.00;;;;;;;10.36;100.00;99668.41;6300866;22;20037;-96
2023/12/21 10:40:14;;;;;;;7.90;1.90;;;;;;;10.49;100.00;99704.44;6337705;22;20017;-96
2023/12/21 10:46:28;;;;;;;;;;;;;;;;;;;;;
2023/12/21 11:14:21;;;;;;;;;;;;;;;;;;;;;
2023/12/21 11:17:39;;;;;;;6.57;1.80;;;;;;;10.39;100.00;99612.94;6183596;23;20008;-96
2023/12/21 11:20:44;;;;;;;;;;;;;;;;;;;;;
2023/12/21 11:23:23;;;;;;;;;;;;;;;;;;;;;
2023/12/21 11:36:26;;;;;;;5.38;1.98;;;;;;;10.63;100.00;99630.34;6183535;23;20071;-95
2023/12/21 11:42:50;;;;;;;7.72;2.10;;;;;;;10.65;100.00;99620.63;6156172;23;20016;-96
2023/12/21 11:45:42;;;;;;;;;;;;;;;;;;;;;
2023/12/21 11:49:11;;;;;;;;;;;;;;;;;;;;;
2023/12/21 11:54:35;;;;;;;4.65;1.90;;;;;;;11.12;100.00;99645.72;6249365;22;20019;-95
2023/12/21 12:21:28;;;;;;;7.70;1.80;;;;;;;11.05;100.00;99646.69;6322653;22;20053;-96
2023/12/21 12:24:49;;;;;;;7.40;2.10;;;;;;;10.70;100.00;99589.75;6225314;23;20016;-96
2023/12/21 12:28:11;;;;;;;;;;;;;;;;;;;;;
2023/12/21 12:34:41;;;;;;;4.03;2.10;;;;;;;11.07;100.00;99638.72;6243034;22;20016;-96
2023/12/21 12:47:02;;;;;;;5.85;1.95;;;;;;;10.52;100.00;99579.38;6202759;23;20082;-96
2023/12/21 12:50:27;;;;;;;;;;;;;;;;;;;;;
2023/12/21 12:53:55;;;;;;;;;;;;;;;;;;;;;
2023/12/21 13:00:57;;;;;;;;;;;;;;;;;;;;;
2023/12/21 13:11:05;;;;;;;6.80;2.10;;;;;;;10.75;100.00;99537.75;6175314;23;20097;-96
2023/12/21 13:45:20;;;;;;;8.52;2.00;;;;;;;10.65;100.00;99644.41;6292513;22;20014;-94
2023/12/21 13:48:09;;;;;;;5.78;1.90;;;;;;;10.68;100.00;99654.09;6287115;22;20011;-94
2023/12/21 13:50:48;;;;;;;9.80;2.20;;;;;;;10.56;100.00;99628.63;6263195;22;20015;-93
2023/12/21 13:53:29;;;;;;;7.72;1.90;;;;;;;10.32;100.00;99578.66;6282551;22;20031;-93
2023/12/21 13:59:22;;;;;;;11.23;2.47;;;;;;;10.51;100.00;99631.31;6261596;22;20448;-95
2023/12/21 14:02:16;;;;;;;9.32;2.53;;;;;;;10.56;100.00;99601.34;6293490;22;20011;-96
2023/12/21 14:05:02;;;;;;;9.00;2.50;;;;;;;10.58;100.00;99602.19;6279525;22;20121;-96
2023/12/21 14:07:34;;;;;;;7.60;1.88;;;;;;;10.65;100.00;99595.97;6288323;22;20007;-96
2023/12/21 14:10:04;;;;;;;13.10;2.25;;;;;;;10.83;100.00;99618.69;6311540;22;20007;-95
2023/12/21 14:12:35;;;;;;;10.95;2.40;;;;;;;10.64;100.00;99571.34;6286582;22;20018;-96
2023/12/21 14:15:07;;;;;;;9.75;2.50;;;;;;;10.93;100.00;99615.97;6289450;22;20351;-93
2023/12/21 14:18:13;;;;;;;10.73;2.20;;;;;;;11.08;100.00;99651.91;6308822;22;20007;-93
2023/12/21 14:21:21;;;;;;;10.27;2.25;;;;;;;10.73;100.00;99588.84;6282386;22;20086;-96
2023/12/21 14:25:08;;;;;;;;;;;;;;;;;;;;;
2023/12/21 14:28:30;;;;;;;;;;;;;;;;;;;;;
2023/12/21 14:31:16;;;;;;;11.35;2.30;;;;;;;10.84;100.00;99591.41;6274035;22;20011;-96
2023/12/21 14:34:09;;;;;;;;;;;;;;;;;;;;;
2023/12/21 14:44:28;;;;;;;9.65;2.33;;;;;;;10.82;100.00;99588.75;6216668;23;20026;-96
2023/12/21 14:47:33;;;;;;;;;;;;;;;;;;;;;
2023/12/21 14:54:41;;;;;;;10.52;3.00;;;;;;;10.77;100.00;99590.56;6102387;23;20014;-96
2023/12/21 15:04:35;;;;;;;14.60;3.58;;;;;;;10.72;100.00;99580.06;6186024;23;20128;-96
2023/12/21 15:07:13;;;;;;;11.20;3.33;;;;;;;11.10;100.00;99652.78;6183458;23;20080;-95
2023/12/21 15:16:53;;;;;;;17.42;2.70;;;;;;;10.94;100.00;99649.41;6185547;23;20013;-95
2023/12/21 15:20:03;;;;;;;;;;;;;;;;;;;;;
2023/12/21 15:23:28;;;;;;;;;;;;;;;;;;;;;
2023/12/21 15:26:21;;;;;;;11.95;2.83;;;;;;;10.82;100.00;99633.69;6281579;22;20046;-96
2023/12/21 15:40:08;;;;;;;;;;;;;;;;;;;;;
2023/12/21 15:43:31;;;;;;;;;;;;;;;;;;;;;
2023/12/21 15:50:01;;;;;;;;;;;;;;;;;;;;;
2023/12/21 15:52:50;;;;;;;23.45;3.60;;;;;;;10.71;100.00;99688.41;6222467;23;20028;-95
2023/12/21 15:59:08;;;;;;;;;;;;;;;;;;;;;
2023/12/21 16:02:35;;;;;;;;;;;;;;;;;;;;;
2023/12/21 16:05:52;;;;;;;13.73;3.28;;;;;;;10.37;100.00;99686.03;6275088;22;20086;-94
2023/12/21 16:09:26;;;;;;;;;;;;;;;;;;;;;
2023/12/21 16:20:12;;;;;;;19.10;3.85;;;;;;;9.93;100.00;99705.59;6196494;23;20162;-96
2023/12/21 16:23:17;;;;;;;;;;;;;;;;;;;;;
2023/12/21 16:26:32;;;;;;;;;;;;;;;;;;;;;
2023/12/21 16:32:15;;;;;;;15.27;3.53;;;;;;;9.54;100.00;99661.81;6183922;23;20519;-92
2023/12/21 16:35:32;;;;;;;16.65;3.20;;;;;;;9.63;100.00;99660.91;6184145;23;20009;-94
2023/12/21 16:38:32;;;;;;;16.13;3.20;;;;;;;9.93;100.00;99734.63;6155854;23;20227;-96
2023/12/21 16:41:37;;;;;;;17.27;3.30;;;;;;;9.61;100.00;99695.19;6146234;23;20436;-94
2023/12/21 16:44:47;;;;;;;19.77;3.72;;;;;;;9.60;100.00;99696.09;6186025;23;20009;-96
2023/12/21 16:47:44;;;;;;;;;;;;;;;;;;;;;
2023/12/21 16:50:50;;;;;;;;;;;;;;;;;;;;;
2023/12/21 16:56:59;;;;;;;;;;;;;;;;;;;;;
2023/12/21 17:09:42;;;;;;;17.65;4.00;;;;;;;9.65;100.00;99701.34;6163477;23;20455;-95
2023/12/21 17:12:59;;;;;;;;;;;;;;;;;;;;;
2023/12/21 17:16:22;;;;;;;;;;;;;;;;;;;;;
2023/12/21 17:26:11;;;;;;;16.55;3.72;;;;;;;9.93;100.00;99766.28;6125573;23;20025;-94
2023/12/21 17:31:33;;;;;;;11.88;3.75;;;;;;;9.72;100.00;99721.50;6125032;23;20052;-93
2023/12/21 17:34:14;;;;;;;13.57;2.97;;;;;;;10.09;100.00;99792.63;6105164;23;20010;-96
2023/12/21 17:36:48;;;;;;;14.75;3.10;;;;;;;10.11;100.00;99804.94;6120995;23;20018;-95
2023/12/21 17:39:21;;;;;;;13.02;3.47;;;;;;;9.83;100.00;99766.34;6180628;23;20013;-95
2023/12/21 17:41:54;;;;;;;14.43;3.80;;;;;;;10.06;100.00;99801.41;6270632;22;20011;-95
2023/12/21 17:44:20;;;;;;;14.88;3.70;;;;;;;9.71;100.00;99754.94;6279019;22;20330;-95
2023/12/21 17:46:58;;;;;;;;;;;;;;;;;;;;;
2023/12/21 17:50:08;;;;;;;17.38;3.20;;;;;;;10.01;97.64;99793.53;6286907;22;20019;-96
2023/12/21 17:53:25;;;;;;;;;;;;;;;;;;;;;
2023/12/21 17:58:46;;;;;;;11.10;3.38;;;;;;;10.06;95.09;99805.81;6332271;22;20086;-94
2023/12/21 18:01:22;;;;;;;12.55;2.75;;;;;;;9.73;93.32;99752.31;6341284;22;20007;-94
2023/12/21 18:03:58;;;;;;;15.43;3.25;;;;;;;9.73;93.00;99769.00;6288373;22;20007;-92
2023/12/21 18:06:24;;;;;;;11.32;2.97;;;;;;;9.68;93.68;99842.00;6312973;22;20100;-94
2023/12/21 18:08:52;;;;;;;10.80;2.72;;;;;;;9.20;90.92;99850.81;6341317;22;20400;-94
2023/12/21 18:11:32;;;;;;;8.68;2.33;;;;;;;8.81;94.15;99914.88;6341871;22;20006;-96
2023/12/21 18:14:02;;;;;;;11.57;2.78;;;;;;;8.32;97.66;99923.44;6290094;22;20297;-96
2023/12/21 18:16:30;;;;;;;12.15;2.85;;;;;;;7.74;99.92;99833.66;6314636;22;20059;-96
2023/12/21 18:19:04;;;;;;;7.78;2.50;;;;;;;7.94;100.00;99925.84;6320106;22;20063;-93
2023/12/21 18:21:32;;;;;;;10.68;2.60;;;;;;;7.76;100.00;99909.06;6315958;22;20415;-95
2023/12/21 18:24:04;;;;;;;10.55;2.88;;;;;;;7.56;100.00;99873.88;6343321;22;20010;-96
2023/12/21 18:26:30;;;;;;;14.35;2.83;;;;;;;7.51;100.00;99875.59;6341460;22;20007;-93
2023/12/21 18:29:05;;;;;;;10.73;3.03;;;;;;;7.38;100.00;99850.09;6293580;22;20006;-95
2023/12/21 18:31:31;;;;;;;10.68;3.28;;;;;;;7.49;100.00;99895.72;6292252;22;20118;-94
2023/12/21 18:33:58;;;;;;;9.07;2.72;;;;;;;7.54;100.00;99901.91;6340801;22;20002;-96
2023/12/21 18:45:48;;;;;;;;;;;;;;;;;;;;;
2023/12/21 18:48:35;;;;;;;12.95;2.70;;;;;;;7.05;100.00;99924.22;6318924;22;20086;-92
2023/12/21 18:51:03;;;;;;;15.85;3.33;;;;;;;7.01;100.00;99939.06;6318520;22;20417;-90
2023/12/21 18:53:33;;;;;;;15.25;3.67;;;;;;;7.34;100.00;99969.19;6345400;22;20011;-91
2023/12/21 18:56:04;;;;;;;15.13;3.75;;;;;;;7.44;100.00;99964.00;6317760;22;20021;-91
2023/12/21 18:58:29;;;;;;;15.70;3.33;;;;;;;7.41;100.00;99960.47;6318519;22;20511;-92
2023/12/21 19:00:57;;;;;;;14.85;3.45;;;;;;;7.27;100.00;99934.94;6345359;22;19999;-93
2023/12/21 19:03:25;;;;;;;19.13;3.80;;;;;;;7.22;100.00;99935.78;6292083;22;20011;-91
2023/12/21 19:05:50;;;;;;;17.95;3.53;;;;;;;7.26;100.00;99959.47;6318289;22;20030;-92
2023/12/21 19:08:16;;;;;;;14.10;3.65;;;;;;;7.34;100.00;99970.06;6292836;22;20006;-91
2023/12/21 19:10:41;;;;;;;19.30;3.80;;;;;;;7.37;100.00;99980.63;6292742;22;20011;-90
2023/12/21 19:13:07;;;;;;;17.42;3.28;;;;;;;7.30;100.00;99975.28;6291643;22;20433;-92
2023/12/21 19:15:32;;;;;;;14.15;3.58;;;;;;;7.30;100.00;99997.19;6346841;22;20052;-92
2023/12/21 19:17:58;;;;;;;18.95;3.55;;;;;;;7.39;100.00;99999.00;6318435;22;20045;-93
2023/12/21 19:20:26;;;;;;;15.25;3.20;;;;;;;7.45;100.00;100002.59;6318229;22;20079;-93
2023/12/21 19:22:51;;;;;;;19.50;3.40;;;;;;;7.43;100.00;100016.59;6345292;22;20082;-91
2023/12/21 19:25:16;;;;;;;17.20;4.00;;;;;;;7.44;100.00;100031.47;6318092;22;20018;-92
2023/12/21 19:27:53;;;;;;;17.23;3.95;;;;;;;7.32;100.00;100007.69;6266768;22;20017;-94
2023/12/21 19:30:31;;;;;;;15.32;3.40;;;;;;;7.17;100.00;100013.69;6292586;22;20422;-94
2023/12/21 19:33:14;;;;;;;;;;;;;;;;;;;;;
2023/12/21 19:35:52;;;;;;;;;;;;;;;;;;;;;
2023/12/21 19:38:44;;;;;;;11.63;2.95;;;;;;;6.85;100.00;99993.19;6345510;22;20023;-92
2023/12/21 19:44:40;;;;;;;;;;;;;;;;;;;;;
2023/12/21 19:47:36;;;;;;;14.07;3.08;;;;;;;6.64;100.00;99982.44;6317571;22;20034;-91
2023/12/21 19:50:44;;;;;;;14.00;3.10;;;;;;;6.87;100.00;100040.47;6306893;22;20007;-92
2023/12/21 19:53:40;;;;;;;15.55;3.30;;;;;;;6.59;100.00;99995.47;6302406;22;20011;-91
2023/12/21 19:56:06;;;;;;;9.27;2.65;;;;;;;6.56;100.00;99991.94;6316572;22;20010;-91
2023/12/21 19:58:47;;;;;;;;;;;;;;;;;;;;;
2023/12/21 20:01:38;;;;;;;7.38;2.15;;;;;;;6.80;100.00;100009.72;6320223;22;20031;-91
2023/12/21 20:04:18;;;;;;;10.07;2.83;;;;;;;6.64;100.00;99977.19;6317640;22;20006;-90
2023/12/21 20:06:44;;;;;;;8.77;2.50;;;;;;;7.01;100.00;100060.78;6320331;22;20010;-89
2023/12/21 20:09:16;;;;;;;13.45;2.90;;;;;;;6.63;100.00;100001.63;6347653;22;20033;-92
2023/12/21 20:12:00;;;;;;;9.95;2.42;;;;;;;6.70;100.00;99993.00;6317639;22;20144;-89
2023/12/21 20:14:31;;;;;;;12.93;2.47;;;;;;;6.74;100.00;100006.16;6345796;22;20030;-91
2023/12/21 20:17:26;;;;;;;10.82;2.40;;;;;;;6.78;100.00;99989.59;6346229;22;20006;-90
2023/12/21 20:20:05;;;;;;;12.00;2.70;;;;;;;7.14;100.00;100029.41;6344549;22;20026;-93
2023/12/21 20:22:59;;;;;;;11.50;2.20;;;;;;;7.28;100.00;100049.72;6269091;22;20006;-93
2023/12/21 20:28:37;;;;;;;;;;;;;;;;;;;;;
2023/12/21 20:34:40;;;;;;;;;;;;;;;;;;;;;
2023/12/21 20:37:28;;;;;;;14.98;3.05;;;;;;;7.16;100.00;100046.09;6339677;22;20038;-93
2023/12/21 20:40:35;;;;;;;12.68;2.70;;;;;;;6.69;100.00;99965.84;6323582;22;20014;-92
2023/12/21 20:43:19;;;;;;;;;;;;;;;;;;;;;
2023/12/21 20:52:43;;;;;;;11.60;2.70;;;;;;;6.66;100.00;99997.31;6325151;22;20056;-93
2023/12/21 20:55:19;;;;;;;14.23;2.80;;;;;;;7.13;100.00;100091.56;6288856;22;20013;-94
2023/12/21 21:00:36;;;;;;;12.15;2.50;;;;;;;6.74;100.00;100018.41;6320090;22;20007;-92
2023/12/21 21:03:31;;;;;;;;;;;;;;;;;;;;;
2023/12/21 21:06:53;;;;;;;;;;;;;;;;;;;;;
2023/12/21 21:09:59;;;;;;;10.20;2.97;;;;;;;6.92;100.00;100038.78;6300004;22;20023;-92
2023/12/21 21:13:00;;;;;;;;;;;;;;;;;;;;;
2023/12/21 21:15:34;;;;;;;10.50;3.25;;;;;;;6.84;100.00;100036.03;6322118;22;20026;-92
2023/12/21 21:18:02;;;;;;;10.25;2.72;;;;;;;6.97;100.00;100055.47;6319315;22;20024;-92
2023/12/21 21:21:15;;;;;;;;;;;;;;;;;;;;;
2023/12/21 21:23:56;;;;;;;;;;;;;;;;;;;;;
2023/12/21 21:26:57;;;;;;;;;;;;;;;;;;;;;
2023/12/21 21:33:10;;;;;;;;;;;;;;;;;;;;;
2023/12/21 21:36:01;;;;;;;;;;;;;;;;;;;;;
2023/12/21 21:45:01;;;;;;;;;;;;;;;;;;;;;
2023/12/21 21:47:47;;;;;;;8.95;2.85;;;;;;;7.53;100.00;100136.72;6346813;22;20042;-92
2023/12/21 21:50:30;;;;;;;;;;;;;;;;;;;;;
2023/12/21 21:54:24;;;;;;;13.07;3.38;;;;;;;7.38;100.00;100105.00;6304947;22;20019;-95
2023/12/21 21:57:19;;;;;;;;;;;;;;;;;;;;;
2023/12/21 22:03:25;;;;;;;13.98;2.78;;;;;;;6.90;100.00;100058.91;6328713;22;20013;-95
2023/12/21 22:06:31;;;;;;;;;;;;;;;;;;;;;
2023/12/21 22:08:59;;;;;;;9.98;2.65;;;;;;;7.23;100.00;100092.56;6346695;22;20382;-91
2023/12/21 22:14:54;;;;;;;12.43;3.00;;;;;;;7.39;100.00;100126.03;6208734;23;20056;-93
2023/12/21 22:17:41;;;;;;;21.58;4.05;;;;;;;7.12;100.00;100102.94;6296990;22;20011;-93
2023/12/21 22:20:19;;;;;;;18.05;3.25;;;;;;;7.29;100.00;100132.06;6346049;22;20029;-94
2023/12/21 22:22:55;;;;;;;19.73;3.30;;;;;;;6.91;100.00;100072.03;6293583;22;20059;-93
2023/12/21 22:25:40;;;;;;;;;;;;;;;;;;;;;
2023/12/21 22:28:22;;;;;;;16.30;3.15;;;;;;;7.14;100.00;100106.47;6346552;22;20033;-92
2023/12/21 22:30:50;;;;;;;13.02;2.83;;;;;;;7.25;100.00;100099.59;6318961;22;20006;-91
2023/12/21 22:33:38;;;;;;;14.98;2.88;;;;;;;7.42;100.00;100110.31;6268063;22;20008;-94
2023/12/21 22:36:32;;;;;;;12.25;2.72;;;;;;;7.02;100.00;100030.13;6327181;22;20550;-93
2023/12/21 22:41:55;;;;;;;;;;;;;;;;;;;;;
2023/12/21 22:44:44;;;;;;;10.73;2.88;;;;;;;6.75;100.00;100126.06;6346834;22;20022;-92
2023/12/21 22:47:24;;;;;;;;;;;;;;;;;;;;;
2023/12/21 22:50:38;;;;;;;;;;;;;;;;;;;;;
2023/12/21 22:53:14;;;;;;;;;;;;;;;;;;;;;
2023/12/21 22:56:26;;;;;;;10.02;2.40;;;;;;;5.74;100.00;100178.56;6313877;22;20026;-90
2023/12/21 22:59:07;;;;;;;;;;;;;;;;;;;;;
2023/12/21 23:02:26;;;;;;;;;;;;;;;;;;;;;
2023/12/21 23:08:04;;;;;;;9.00;1.98;;;;;;;5.74;100.00;100221.38;6313537;22;20011;-91
2023/12/21 23:11:14;;;;;;;;;;;;;;;;;;;;;
2023/12/21 23:13:50;;;;;;;9.07;2.15;;;;;;;5.70;100.00;100161.88;6308008;22;20396;-92
2023/12/21 23:16:36;;;;;;;11.15;2.25;;;;;;;5.67;100.00;100168.78;6305730;22;20396;-93